createdAt,value
2022-09-16T00:00:35.170Z,99020.38
2022-09-16T00:03:02.462Z,99028.16
2022-09-16T00:05:30.151Z,99023.38
2022-09-16T00:07:57.350Z,99026.69
2022-09-16T00:10:24.744Z,99031.22
2022-09-16T00:12:51.784Z,99022.66
2022-09-16T00:15:19.265Z,99023.69
2022-09-16T00:17:46.383Z,99036.66
2022-09-16T00:20:13.765Z,99031.47
2022-09-16T00:22:40.914Z,99027.19
2022-09-16T00:25:08.277Z,99018.03
2022-09-16T00:27:35.501Z,99033.41
2022-09-16T00:30:02.582Z,99040.44
2022-09-16T00:32:29.582Z,99039.66
2022-09-16T00:34:56.590Z,99033.03
2022-09-16T00:37:23.742Z,99039.19
2022-09-16T00:39:51.619Z,99040.16
2022-09-16T00:42:19.464Z,99044.53
2022-09-16T00:44:53.165Z,99042.69
2022-09-16T00:47:41.112Z,99041.00
2022-09-16T00:50:17.750Z,99046.31
2022-09-16T00:52:45.220Z,99041.38
2022-09-16T00:55:17.696Z,99044.84
2022-09-16T00:57:46.599Z,99025.44
2022-09-16T01:00:14.240Z,99027.31
2022-09-16T01:02:45.697Z,99036.78
2022-09-16T01:05:16.577Z,99047.03
2022-09-16T01:07:55.110Z,99047.16
2022-09-16T01:10:25.400Z,99050.75
2022-09-16T01:12:56.504Z,99045.69
2022-09-16T01:15:31.828Z,99033.63
2022-09-16T01:18:11.822Z,99047.59
2022-09-16T01:20:57.505Z,99045.81
2022-09-16T01:23:36.501Z,99049.31
2022-09-16T01:26:12.781Z,99051.00
2022-09-16T01:28:42.620Z,99056.19
2022-09-16T01:31:39.155Z,99051.13
2022-09-16T01:34:21.184Z,99050.41
2022-09-16T01:37:23.704Z,99051.22
2022-09-16T01:40:28.847Z,99045.31
2022-09-16T01:43:21.664Z,99051.56
2022-09-16T01:45:51.303Z,99042.16
2022-09-16T01:48:24.681Z,99044.09
2022-09-16T01:51:02.267Z,99039.91
2022-09-16T01:53:37.471Z,99035.50
2022-09-16T01:56:17.111Z,99046.84
2022-09-16T01:59:02.350Z,99049.44
2022-09-16T02:01:36.089Z,99042.00
2022-09-16T02:04:09.542Z,99049.00
2022-09-16T02:06:39.032Z,99028.66
2022-09-16T02:09:11.759Z,99054.84
2022-09-16T02:11:41.272Z,99054.97
2022-09-16T02:14:19.623Z,99050.78
2022-09-16T02:16:58.284Z,99049.22
2022-09-16T02:19:31.672Z,99030.38
2022-09-16T02:22:03.274Z,99044.91
2022-09-16T02:24:33.022Z,99048.56
2022-09-16T02:27:03.121Z,99056.44
2022-09-16T02:29:40.641Z,99063.28
2022-09-16T02:32:10.248Z,99061.69
2022-09-16T02:34:45.062Z,99056.72
2022-09-16T02:37:37.577Z,99063.66
2022-09-16T02:40:10.249Z,99053.34
2022-09-16T02:42:37.474Z,99054.41
2022-09-16T02:45:05.582Z,99051.78
2022-09-16T02:47:45.422Z,99050.13
2022-09-16T02:50:50.580Z,99053.69
2022-09-16T02:53:38.690Z,99050.50
2022-09-16T02:56:22.109Z,99053.09
2022-09-16T02:58:49.631Z,99063.47
2022-09-16T03:01:18.182Z,99062.56
2022-09-16T03:03:45.372Z,99067.84
2022-09-16T03:06:27.190Z,99069.75
2022-09-16T03:08:59.236Z,99071.34
2022-09-16T03:11:30.514Z,99069.63
2022-09-16T03:14:03.535Z,99069.63
2022-09-16T03:17:01.015Z,99066.38
2022-09-16T03:19:47.716Z,99069.03
2022-09-16T03:22:17.689Z,99073.31
2022-09-16T03:25:06.485Z,99069.81
2022-09-16T03:27:41.349Z,99063.06
2022-09-16T03:30:11.664Z,99057.78
2022-09-16T03:33:09.034Z,99061.19
2022-09-16T03:35:45.784Z,99080.19
2022-09-16T03:38:14.334Z,99061.47
2022-09-16T03:40:42.756Z,99075.09
2022-09-16T03:43:16.230Z,99080.28
2022-09-16T03:45:44.158Z,99072.66
2022-09-16T03:48:13.742Z,99056.59
2022-09-16T03:50:40.745Z,99081.34
2022-09-16T03:53:07.825Z,99074.66
2022-09-16T03:55:35.052Z,99078.91
2022-09-16T03:58:02.196Z,99072.88
2022-09-16T04:00:29.433Z,99074.03
2022-09-16T04:02:56.814Z,99077.22
2022-09-16T04:05:23.823Z,99083.31
2022-09-16T04:07:51.093Z,99084.28
2022-09-16T04:10:18.674Z,99077.44
2022-09-16T04:12:45.879Z,99075.72
2022-09-16T04:15:13.085Z,99069.69
2022-09-16T04:17:40.414Z,99081.75
2022-09-16T04:20:08.585Z,99075.00
2022-09-16T04:22:35.874Z,99069.06
2022-09-16T04:25:02.964Z,99079.22
2022-09-16T04:27:30.006Z,99082.78
2022-09-16T04:29:56.996Z,99084.50
2022-09-16T04:32:24.183Z,99086.28
2022-09-16T04:34:51.248Z,99086.28
2022-09-16T04:37:18.413Z,99079.41
2022-09-16T04:39:45.554Z,99082.72
2022-09-16T04:42:12.724Z,99058.88
2022-09-16T04:44:40.029Z,99079.31
2022-09-16T04:47:07.091Z,99081.22
2022-09-16T04:49:34.139Z,99075.13
2022-09-16T04:52:01.354Z,99069.16
2022-09-16T04:54:28.367Z,99072.84
2022-09-16T04:56:55.360Z,99075.94
2022-09-16T04:59:22.551Z,99082.00
2022-09-16T05:01:49.649Z,99073.47
2022-09-16T05:04:16.684Z,99081.00
2022-09-16T05:06:44.788Z,99074.13
2022-09-16T05:09:12.797Z,99075.72
2022-09-16T05:11:41.163Z,99075.56
2022-09-16T05:14:13.019Z,99067.81
2022-09-16T05:16:40.078Z,99073.53
2022-09-16T05:19:07.351Z,99074.28
2022-09-16T05:21:36.737Z,99064.75
2022-09-16T05:24:08.413Z,99071.34
2022-09-16T05:26:38.097Z,99076.19
2022-09-16T05:29:08.134Z,99069.69
2022-09-16T05:31:37.356Z,99062.03
2022-09-16T05:34:15.677Z,99072.88
2022-09-16T05:36:44.217Z,99078.75
2022-09-16T05:39:25.328Z,99076.16
2022-09-16T05:41:56.668Z,99076.72
2022-09-16T05:44:24.908Z,99078.31
2022-09-16T05:46:52.478Z,99086.66
2022-09-16T05:49:21.455Z,99086.53
2022-09-16T05:51:49.318Z,99086.19
2022-09-16T05:54:18.793Z,99079.94
2022-09-16T05:56:46.745Z,99093.06
2022-09-16T05:59:15.036Z,99095.53
2022-09-16T06:01:42.566Z,99085.84
2022-09-16T06:04:12.692Z,99089.66
2022-09-16T06:06:43.216Z,99084.22
2022-09-16T06:09:19.325Z,99084.09
2022-09-16T06:11:48.894Z,99086.31
2022-09-16T06:14:17.436Z,99077.19
2022-09-16T06:16:44.704Z,99083.09
2022-09-16T06:19:15.152Z,99087.50
2022-09-16T06:21:43.863Z,99092.13
2022-09-16T06:24:12.371Z,99084.47
2022-09-16T06:26:42.325Z,99093.28
2022-09-16T06:29:10.470Z,99083.97
2022-09-16T06:31:38.186Z,99084.84
2022-09-16T06:34:06.558Z,99102.22
2022-09-16T06:36:38.620Z,99094.47
2022-09-16T06:39:11.538Z,99077.38
2022-09-16T06:41:38.607Z,99047.84
2022-09-16T06:44:05.637Z,99086.75
2022-09-16T06:46:32.597Z,99067.66
2022-09-16T06:49:05.106Z,99084.72
2022-09-16T06:51:33.097Z,99073.38
2022-09-16T06:54:05.664Z,99070.34
2022-09-16T06:56:36.249Z,99069.19
2022-09-16T06:59:03.885Z,99065.16
2022-09-16T07:01:31.869Z,99084.09
2022-09-16T07:04:02.054Z,99071.13
2022-09-16T07:06:52.218Z,99075.88
2022-09-16T07:09:17.981Z,99084.88
2022-09-16T07:11:45.061Z,99084.50
2022-09-16T07:14:12.556Z,99067.28
2022-09-16T07:16:39.662Z,99075.56
2022-09-16T07:19:07.341Z,99078.81
2022-09-16T07:21:34.419Z,99075.16
2022-09-16T07:24:03.181Z,99081.81
2022-09-16T07:26:33.196Z,99076.34
2022-09-16T07:29:02.317Z,99077.09
2022-09-16T07:31:33.540Z,99074.13
2022-09-16T07:34:04.337Z,99080.91
2022-09-16T07:36:34.800Z,99094.28
2022-09-16T07:39:02.511Z,99091.22
2022-09-16T07:41:33.940Z,99083.63
2022-09-16T07:44:01.825Z,99088.69
2022-09-16T07:46:31.233Z,99101.59
2022-09-16T07:49:00.115Z,99076.19
2022-09-16T07:51:28.738Z,99089.59
2022-09-16T07:54:00.676Z,99082.16
2022-09-16T07:56:29.756Z,99088.13
2022-09-16T07:58:57.789Z,99085.03
2022-09-16T08:01:25.941Z,99077.72
2022-09-16T08:03:53.556Z,99086.97
2022-09-16T08:06:23.706Z,99081.44
2022-09-16T08:08:53.463Z,99083.00
2022-09-16T08:11:22.699Z,99083.28
2022-09-16T08:13:50.153Z,99086.03
2022-09-16T08:16:20.655Z,99082.91
2022-09-16T08:18:53.077Z,99087.06
2022-09-16T08:21:23.394Z,99082.63
2022-09-16T08:23:51.015Z,99081.66
2022-09-16T08:26:19.374Z,99084.47
2022-09-16T08:29:07.927Z,99077.84
2022-09-16T08:31:34.862Z,99067.44
2022-09-16T08:34:01.991Z,99087.28
2022-09-16T08:36:29.144Z,99075.38
2022-09-16T08:38:57.019Z,99074.63
2022-09-16T08:41:26.965Z,99091.38
2022-09-16T08:44:04.957Z,99083.34
2022-09-16T08:47:02.041Z,99081.09
2022-09-16T08:49:46.338Z,99087.88
2022-09-16T08:52:30.005Z,99095.56
2022-09-16T08:55:01.981Z,99080.34
2022-09-16T08:57:32.334Z,99077.00
2022-09-16T09:00:02.095Z,99076.06
2022-09-16T09:02:58.568Z,99080.72
2022-09-16T09:05:51.943Z,99069.97
2022-09-16T09:08:32.959Z,99085.47
2022-09-16T09:11:03.022Z,99083.38
2022-09-16T09:13:30.073Z,99087.75
2022-09-16T09:16:28.802Z,99077.78
2022-09-16T09:19:08.021Z,99086.81
2022-09-16T09:21:53.868Z,99079.28
2022-09-16T09:24:45.695Z,99083.28
2022-09-16T09:27:16.873Z,99077.78
2022-09-16T09:30:11.636Z,99076.56
2022-09-16T09:32:49.636Z,99077.78
2022-09-16T09:35:23.114Z,99071.44
2022-09-16T09:37:53.149Z,99076.59
2022-09-16T09:40:49.482Z,99077.63
2022-09-16T09:43:22.550Z,99076.69
2022-09-16T09:46:05.799Z,99084.19
2022-09-16T09:48:57.701Z,99075.13
2022-09-16T09:51:37.420Z,99084.72
2022-09-16T09:54:21.392Z,99078.88
2022-09-16T09:56:51.070Z,99062.97
2022-09-16T09:59:39.679Z,99058.00
2022-09-16T10:02:17.877Z,99061.69
2022-09-16T10:04:45.815Z,99065.19
2022-09-16T10:07:15.630Z,99066.63
2022-09-16T10:10:16.697Z,99073.06
2022-09-16T10:12:44.031Z,99065.38
2022-09-16T10:15:32.069Z,99067.81
2022-09-16T10:18:01.921Z,99058.59
2022-09-16T10:20:30.912Z,99053.44
2022-09-16T10:23:02.683Z,99075.38
2022-09-16T10:25:32.438Z,99078.84
2022-09-16T10:28:06.271Z,99073.19
2022-09-16T10:30:47.430Z,99075.34
2022-09-16T10:33:23.679Z,99086.06
2022-09-16T10:36:09.002Z,99091.72
2022-09-16T10:38:51.379Z,99090.03
2022-09-16T10:41:22.557Z,99074.84
2022-09-16T10:43:52.823Z,99092.38
2022-09-16T10:46:20.972Z,99088.69
2022-09-16T10:48:50.072Z,99087.00
2022-09-16T10:51:26.238Z,99096.19
2022-09-16T10:53:58.692Z,99094.78
2022-09-16T10:56:29.789Z,99091.59
2022-09-16T10:59:12.841Z,99093.28
2022-09-16T11:01:45.968Z,99100.31
2022-09-16T11:04:23.109Z,99100.00
2022-09-16T11:06:53.373Z,99096.22
2022-09-16T11:09:23.242Z,99101.78
2022-09-16T11:12:11.045Z,99089.50
2022-09-16T11:14:41.260Z,99095.34
2022-09-16T11:17:14.300Z,99100.84
2022-09-16T11:20:17.611Z,99090.69
2022-09-16T11:22:58.750Z,99098.75
2022-09-16T11:25:26.319Z,99087.91
2022-09-16T11:28:17.289Z,99096.16
2022-09-16T11:30:59.522Z,99089.81
2022-09-16T11:33:45.957Z,99083.44
2022-09-16T11:36:22.220Z,99089.03
2022-09-16T11:39:26.743Z,99080.13
2022-09-16T11:42:09.322Z,99083.44
2022-09-16T11:45:00.946Z,99086.47
2022-09-16T11:47:28.141Z,99078.13
2022-09-16T11:49:58.176Z,99085.69
2022-09-16T11:53:04.416Z,99070.53
2022-09-16T11:55:48.692Z,99074.69
2022-09-16T11:58:21.857Z,99077.97
2022-09-16T12:00:52.642Z,99072.59
2022-09-16T12:03:50.004Z,99084.19
2022-09-16T12:06:24.998Z,99061.22
2022-09-16T12:09:09.102Z,99060.44
2022-09-16T12:11:52.792Z,99060.00
2022-09-16T12:14:31.694Z,99048.34
2022-09-16T12:17:24.433Z,99049.53
2022-09-16T12:20:22.479Z,99038.06
2022-09-16T12:22:55.368Z,99048.19
2022-09-16T12:25:35.590Z,99043.47
2022-09-16T12:28:46.229Z,99046.59
2022-09-16T12:31:26.437Z,99050.69
2022-09-16T12:33:59.139Z,99042.91
2022-09-16T12:36:31.502Z,99035.31
2022-09-16T12:38:59.859Z,99037.09
2022-09-16T12:41:41.539Z,99026.09
2022-09-16T12:44:44.840Z,99015.69
2022-09-16T12:47:11.929Z,99025.22
2022-09-16T12:50:06.778Z,99018.66
2022-09-16T12:53:18.083Z,99016.41
2022-09-16T12:55:45.232Z,99012.47
2022-09-16T12:59:06.690Z,99020.00
2022-09-16T13:01:48.762Z,99006.66
2022-09-16T13:04:43.336Z,98992.84
2022-09-16T13:07:24.754Z,99010.41
2022-09-16T13:10:06.789Z,99004.63
2022-09-16T13:12:44.736Z,99001.09
2022-09-16T13:15:32.389Z,99016.00
2022-09-16T13:18:14.784Z,99008.00
2022-09-16T13:20:52.412Z,99008.66
2022-09-16T13:23:33.235Z,99013.22
2022-09-16T13:26:03.960Z,99002.84
2022-09-16T13:28:44.560Z,98997.34
2022-09-16T13:31:12.021Z,98998.88
2022-09-16T13:34:09.001Z,99002.41
2022-09-16T13:36:36.133Z,99002.56
2022-09-16T13:39:12.283Z,99001.09
2022-09-16T13:41:47.330Z,99000.09
2022-09-16T13:44:39.420Z,99006.38
2022-09-16T13:47:09.268Z,99002.00
2022-09-16T13:49:59.637Z,98992.91
2022-09-16T13:52:34.989Z,99003.72
2022-09-16T13:55:10.509Z,98997.69
2022-09-16T13:57:53.754Z,98999.31
2022-09-16T14:00:32.403Z,98988.09
2022-09-16T14:03:31.618Z,99001.16
2022-09-16T14:06:12.772Z,99001.41
2022-09-16T14:08:54.965Z,99002.41
2022-09-16T14:11:39.297Z,98992.50
2022-09-16T14:14:29.970Z,98999.38
2022-09-16T14:17:03.518Z,99000.50
2022-09-16T14:19:36.971Z,98991.84
2022-09-16T14:22:18.687Z,98993.94
2022-09-16T14:24:50.254Z,98978.59
2022-09-16T14:27:36.795Z,98991.31
2022-09-16T14:30:07.497Z,98988.69
2022-09-16T14:32:37.198Z,98984.06
2022-09-16T14:35:15.889Z,98989.88
2022-09-16T14:37:46.360Z,98988.69
2022-09-16T14:40:16.917Z,98984.13
2022-09-16T14:43:04.867Z,98986.50
2022-09-16T14:45:34.967Z,98989.34
2022-09-16T14:48:07.440Z,98978.44
2022-09-16T14:50:41.492Z,98985.50
2022-09-16T14:53:34.728Z,98983.38
2022-09-16T14:56:03.625Z,98987.66
2022-09-16T14:58:33.595Z,98987.59
2022-09-16T15:01:09.036Z,98989.69
2022-09-16T15:03:48.525Z,98989.44
2022-09-16T15:06:20.386Z,98984.28
2022-09-16T15:09:00.098Z,98991.69
2022-09-16T15:11:48.998Z,98979.28
2022-09-16T15:14:18.276Z,98991.69
2022-09-16T15:17:00.398Z,98988.81
2022-09-16T15:19:31.914Z,98987.66
2022-09-16T15:21:59.808Z,98983.13
2022-09-16T15:24:32.548Z,98980.56
2022-09-16T15:27:00.706Z,98966.78
2022-09-16T15:29:32.129Z,98978.72
2022-09-16T15:32:21.138Z,98980.75
2022-09-16T15:35:04.385Z,98963.91
2022-09-16T15:37:34.008Z,98982.59
2022-09-16T15:40:22.722Z,98980.91
2022-09-16T15:43:06.251Z,98962.28
2022-09-16T15:45:33.927Z,98963.91
2022-09-16T15:48:12.207Z,98966.50
2022-09-16T15:50:54.559Z,98973.16
2022-09-16T15:53:36.014Z,98975.88
2022-09-16T15:56:06.771Z,98976.88
2022-09-16T15:58:42.408Z,98973.44
2022-09-16T16:01:21.796Z,98968.44
2022-09-16T16:03:56.222Z,98959.19
2022-09-16T16:06:52.814Z,98973.16
2022-09-16T16:09:28.968Z,98968.09
2022-09-16T16:11:56.871Z,98963.03
2022-09-16T16:14:25.362Z,98968.41
2022-09-16T16:17:11.679Z,98970.41
2022-09-16T16:19:41.467Z,98967.19
2022-09-16T16:22:09.561Z,98966.75
2022-09-16T16:24:37.198Z,98974.91
2022-09-16T16:27:05.223Z,98953.94
2022-09-16T16:29:32.474Z,98973.97
2022-09-16T16:32:00.132Z,98975.97
2022-09-16T16:34:27.222Z,98980.56
2022-09-16T16:36:55.225Z,98978.13
2022-09-16T16:39:24.486Z,98979.13
2022-09-16T16:41:54.276Z,98968.41
2022-09-16T16:44:23.456Z,98980.44
2022-09-16T16:46:52.681Z,98978.00
2022-09-16T16:49:20.686Z,98973.84
2022-09-16T16:51:52.531Z,98974.84
2022-09-16T16:54:20.026Z,98981.06
2022-09-16T16:56:47.647Z,98990.72
2022-09-16T16:59:15.542Z,98990.94
2022-09-16T17:01:48.477Z,98984.25
2022-09-16T17:04:16.292Z,98990.56
2022-09-16T17:06:43.791Z,98989.00
2022-09-16T17:09:15.781Z,98975.50
2022-09-16T17:11:55.147Z,98988.59
2022-09-16T17:14:24.117Z,98987.56
2022-09-16T17:16:52.195Z,98996.16
2022-09-16T17:19:19.640Z,98991.84
2022-09-16T17:21:47.027Z,98997.22
2022-09-16T17:24:14.305Z,98994.91
2022-09-16T17:26:41.473Z,98998.63
2022-09-16T17:29:15.035Z,99003.00
2022-09-16T17:31:43.420Z,98996.53
2022-09-16T17:34:14.719Z,98994.84
2022-09-16T17:36:46.803Z,98993.38
2022-09-16T17:39:19.591Z,98996.81
2022-09-16T17:41:49.102Z,98998.66
2022-09-16T17:44:17.495Z,98990.16
2022-09-16T17:46:45.450Z,99003.19
2022-09-16T17:49:17.233Z,99004.94
2022-09-16T17:51:45.007Z,99004.09
2022-09-16T17:54:12.707Z,98997.19
2022-09-16T17:56:40.062Z,98994.25
2022-09-16T17:59:07.287Z,98977.34
2022-09-16T18:01:35.320Z,98999.59
2022-09-16T18:04:02.863Z,98989.47
2022-09-16T18:06:39.296Z,99004.25
2022-09-16T18:09:07.582Z,98997.66
2022-09-16T18:11:36.500Z,98991.84
2022-09-16T18:14:05.567Z,98993.53
2022-09-16T18:16:33.050Z,98996.31
2022-09-16T18:19:01.862Z,98999.00
2022-09-16T18:21:30.149Z,99009.50
2022-09-16T18:24:02.877Z,99014.84
2022-09-16T18:26:31.425Z,99006.41
2022-09-16T18:29:10.917Z,99002.78
2022-09-16T18:31:44.023Z,99010.63
2022-09-16T18:34:11.969Z,98995.31
2022-09-16T18:36:39.599Z,99010.72
2022-09-16T18:39:10.327Z,99010.63
2022-09-16T18:41:40.272Z,99010.75
2022-09-16T18:44:12.709Z,99006.53
2022-09-16T18:46:40.304Z,99006.53
2022-09-16T18:49:07.901Z,99006.69
2022-09-16T18:51:36.590Z,99001.47
2022-09-16T18:54:11.126Z,98993.91
2022-09-16T18:56:39.584Z,99006.53
2022-09-16T18:59:22.094Z,98996.00
2022-09-16T19:01:51.906Z,99006.41
2022-09-16T19:04:21.538Z,98966.53
2022-09-16T19:06:51.314Z,99007.97
2022-09-16T19:09:20.927Z,99009.66
2022-09-16T19:11:48.282Z,98997.56
2022-09-16T19:14:16.103Z,98997.72
2022-09-16T19:16:44.944Z,98993.53
2022-09-16T19:19:14.331Z,98995.50
2022-09-16T19:21:43.201Z,98992.16
2022-09-16T19:24:16.316Z,98995.59
2022-09-16T19:26:44.853Z,99000.19
2022-09-16T19:29:13.418Z,99005.50
2022-09-16T19:31:42.516Z,99005.78
2022-09-16T19:34:10.011Z,99000.72
2022-09-16T19:36:38.031Z,99002.41
2022-09-16T19:39:06.618Z,98997.41
2022-09-16T19:41:36.898Z,98999.28
2022-09-16T19:44:08.240Z,98997.00
2022-09-16T19:46:37.298Z,98999.59
2022-09-16T19:49:06.395Z,98974.47
2022-09-16T19:51:33.768Z,99005.13
2022-09-16T19:54:01.458Z,99012.13
2022-09-16T19:56:32.997Z,99008.88
2022-09-16T19:59:01.734Z,99005.63
2022-09-16T20:01:33.578Z,99000.50
2022-09-16T20:04:02.307Z,99002.25
2022-09-16T20:06:40.795Z,99003.09
2022-09-16T20:09:12.217Z,99007.56
2022-09-16T20:11:42.193Z,99003.25
2022-09-16T20:14:15.757Z,99005.84
2022-09-16T20:16:43.487Z,99002.47
2022-09-16T20:19:13.157Z,99005.97
2022-09-16T20:21:41.054Z,99005.97
2022-09-16T20:24:13.620Z,98978.94
2022-09-16T20:26:41.020Z,99006.72
2022-09-16T20:29:08.064Z,99000.66
2022-09-16T20:31:36.726Z,98998.88
2022-09-16T20:34:04.986Z,98998.88
2022-09-16T20:36:35.911Z,98998.88
2022-09-16T20:39:04.202Z,98996.28
2022-09-16T20:41:32.514Z,98988.50
2022-09-16T20:44:00.294Z,99005.63
2022-09-16T20:46:38.970Z,99017.91
2022-09-16T20:49:10.740Z,98993.44
2022-09-16T20:51:37.904Z,99011.94
2022-09-16T20:54:09.126Z,99013.66
2022-09-16T20:56:42.595Z,99011.16
2022-09-16T20:59:13.211Z,99001.63
2022-09-16T21:01:41.741Z,99010.38
2022-09-16T21:04:15.582Z,99016.59
2022-09-16T21:06:43.266Z,99016.59
2022-09-16T21:09:13.209Z,99012.44
2022-09-16T21:11:43.808Z,99010.69
2022-09-16T21:14:12.612Z,99017.63
2022-09-16T21:16:41.190Z,99006.59
2022-09-16T21:19:10.204Z,99017.69
2022-09-16T21:21:40.564Z,99004.28
2022-09-16T21:24:08.746Z,99018.91
2022-09-16T21:26:37.424Z,99012.91
2022-09-16T21:29:11.364Z,99017.09
2022-09-16T21:31:41.317Z,99015.41
2022-09-16T21:34:14.121Z,99013.72
2022-09-16T21:36:41.347Z,99016.25
2022-09-16T21:39:08.994Z,99020.47
2022-09-16T21:41:36.386Z,99007.69
2022-09-16T21:44:04.523Z,99010.16
2022-09-16T21:46:33.969Z,99020.47
2022-09-16T21:49:02.796Z,99008.25
2022-09-16T21:51:37.408Z,99018.72
2022-09-16T21:54:07.339Z,99018.91
2022-09-16T21:56:37.640Z,99021.50
2022-09-16T21:59:04.522Z,99018.44
2022-09-16T22:01:31.833Z,99020.28
2022-09-16T22:04:13.798Z,99019.53
2022-09-16T22:06:41.674Z,99016.25
2022-09-16T22:09:10.123Z,99015.34
2022-09-16T22:11:38.956Z,99007.59
2022-09-16T22:14:06.451Z,99015.47
2022-09-16T22:16:35.284Z,99009.72
2022-09-16T22:19:07.571Z,99013.44
2022-09-16T22:21:37.416Z,99007.41
2022-09-16T22:24:05.496Z,99003.19
2022-09-16T22:26:32.945Z,99010.06
2022-09-16T22:29:00.903Z,99008.38
2022-09-16T22:31:30.738Z,99010.97
2022-09-16T22:34:01.485Z,99004.94
2022-09-16T22:36:31.051Z,99006.91
2022-09-16T22:39:01.340Z,99003.66
2022-09-16T22:41:29.082Z,99000.41
2022-09-16T22:43:56.469Z,99007.38
2022-09-16T22:46:26.259Z,98990.22
2022-09-16T22:48:55.464Z,98990.34
2022-09-16T22:51:22.831Z,98991.31
2022-09-16T22:53:49.989Z,98966.06
2022-09-16T22:56:19.293Z,98977.66
2022-09-16T22:58:47.399Z,98983.75
2022-09-16T23:01:17.879Z,98975.88
2022-09-16T23:03:46.420Z,98979.53
2022-09-16T23:06:15.770Z,98975.41
2022-09-16T23:08:47.644Z,98971.16
2022-09-16T23:11:17.560Z,98968.59
2022-09-16T23:13:45.514Z,98966.97
2022-09-16T23:16:16.140Z,98959.31
2022-09-16T23:18:44.906Z,98965.44
2022-09-16T23:21:14.405Z,98950.00
2022-09-16T23:23:43.666Z,98952.63
2022-09-16T23:26:13.952Z,98951.69
2022-09-16T23:28:41.214Z,98947.53
2022-09-16T23:31:12.202Z,98949.28
2022-09-16T23:33:40.180Z,98949.28
2022-09-16T23:36:08.847Z,98943.22
2022-09-16T23:38:38.783Z,98938.03
2022-09-16T23:41:08.249Z,98939.88
2022-09-16T23:43:35.277Z,98933.22
2022-09-16T23:46:02.394Z,98926.47
2022-09-16T23:48:30.785Z,98935.00
2022-09-16T23:50:59.448Z,98936.72
2022-09-16T23:53:27.015Z,98945.25
2022-09-16T23:55:54.519Z,98951.34
2022-09-16T23:58:21.940Z,98928.34
